sensor_id;sensor_type;location;lat;lon;timestamp;pressure;altitude;pressure_sealevel;temperature;humidity
43691;BME280;29293;52.190;21.226;2023-03-15T00:06:48;98594.67;;;7.57;100.00
43691;BME280;29293;52.190;21.226;2023-03-15T00:21:56;98605.17;;;7.72;100.00
43691;BME280;29293;52.190;21.226;2023-03-15T00:37:03;98615.70;;;7.75;100.00
43691;BME280;29293;52.190;21.226;2023-03-15T00:52:10;98639.27;;;7.89;100.00
43691;BME280;29293;52.190;21.226;2023-03-15T01:07:18;98655.58;;;8.01;100.00
43691;BME280;29293;52.190;21.226;2023-03-15T01:22:27;98760.75;;;7.29;100.00
43691;BME280;29293;52.190;21.226;2023-03-15T01:37:34;98846.34;;;5.37;100.00
43691;BME280;29293;52.190;21.226;2023-03-15T01:52:42;98927.05;;;4.27;100.00
43691;BME280;29293;52.190;21.226;2023-03-15T02:07:50;98988.43;;;3.64;100.00
43691;BME280;29293;52.190;21.226;2023-03-15T02:23:03;99072.77;;;3.44;100.00
43691;BME280;29293;52.190;21.226;2023-03-15T02:38:10;99125.69;;;3.07;100.00
43691;BME280;29293;52.190;21.226;2023-03-15T02:53:17;99207.27;;;2.92;100.00
43691;BME280;29293;52.190;21.226;2023-03-15T03:08:24;99246.81;;;2.77;100.00
43691;BME280;29293;52.190;21.226;2023-03-15T03:23:31;99269.61;;;2.67;100.00
43691;BME280;29293;52.190;21.226;2023-03-15T03:38:39;99311.96;;;2.63;100.00
43691;BME280;29293;52.190;21.226;2023-03-15T03:53:47;99359.73;;;2.63;100.00
43691;BME280;29293;52.190;21.226;2023-03-15T04:08:53;99399.63;;;2.66;100.00
43691;BME280;29293;52.190;21.226;2023-03-15T04:24:01;99403.63;;;2.68;100.00
43691;BME280;29293;52.190;21.226;2023-03-15T04:39:10;99407.13;;;2.65;100.00
43691;BME280;29293;52.190;21.226;2023-03-15T05:09:37;99442.79;;;2.62;100.00
43691;BME280;29293;52.190;21.226;2023-03-15T05:24:44;99473.81;;;2.68;100.00
43691;BME280;29293;52.190;21.226;2023-03-15T05:39:54;99509.88;;;2.73;100.00
43691;BME280;29293;52.190;21.226;2023-03-15T05:55:01;99530.55;;;2.75;100.00
43691;BME280;29293;52.190;21.226;2023-03-15T06:10:10;99574.48;;;2.79;100.00
43691;BME280;29293;52.190;21.226;2023-03-15T06:25:21;99607.13;;;2.87;100.00
43691;BME280;29293;52.190;21.226;2023-03-15T06:40:32;99622.58;;;3.01;100.00
43691;BME280;29293;52.190;21.226;2023-03-15T06:55:40;99655.64;;;3.22;100.00
43691;BME280;29293;52.190;21.226;2023-03-15T07:10:49;99693.84;;;3.35;100.00
43691;BME280;29293;52.190;21.226;2023-03-15T07:25:56;99695.20;;;3.51;100.00
43691;BME280;29293;52.190;21.226;2023-03-15T07:41:04;99711.25;;;3.50;100.00
43691;BME280;29293;52.190;21.226;2023-03-15T07:56:11;99727.46;;;3.80;100.00
43691;BME280;29293;52.190;21.226;2023-03-15T08:11:18;99756.21;;;4.52;100.00
43691;BME280;29293;52.190;21.226;2023-03-15T08:26:25;99780.54;;;4.83;100.00
43691;BME280;29293;52.190;21.226;2023-03-15T08:41:32;99816.30;;;4.88;100.00
43691;BME280;29293;52.190;21.226;2023-03-15T08:56:41;99858.02;;;4.65;100.00
43691;BME280;29293;52.190;21.226;2023-03-15T09:11:48;99883.02;;;4.80;100.00
43691;BME280;29293;52.190;21.226;2023-03-15T09:26:55;99882.13;;;5.25;100.00
43691;BME280;29293;52.190;21.226;2023-03-15T09:42:03;99890.30;;;5.65;100.00
43691;BME280;29293;52.190;21.226;2023-03-15T09:57:19;99890.41;;;5.69;100.00
43691;BME280;29293;52.190;21.226;2023-03-15T10:12:30;99893.24;;;6.17;100.00
43691;BME280;29293;52.190;21.226;2023-03-15T10:27:48;99879.91;;;6.58;100.00
43691;BME280;29293;52.190;21.226;2023-03-15T10:42:58;99895.38;;;6.46;100.00
43691;BME280;29293;52.190;21.226;2023-03-15T10:58:21;99894.10;;;6.62;100.00
43691;BME280;29293;52.190;21.226;2023-03-15T11:13:33;99888.33;;;6.72;100.00
43691;BME280;29293;52.190;21.226;2023-03-15T11:28:45;99897.67;;;6.82;100.00
43691;BME280;29293;52.190;21.226;2023-03-15T11:44:01;99897.08;;;7.01;100.00
43691;BME280;29293;52.190;21.226;2023-03-15T11:59:15;99902.98;;;7.21;100.00
43691;BME280;29293;52.190;21.226;2023-03-15T12:14:28;99926.64;;;6.96;100.00
43691;BME280;29293;52.190;21.226;2023-03-15T12:29:35;99938.02;;;6.77;100.00
43691;BME280;29293;52.190;21.226;2023-03-15T12:44:43;99956.27;;;6.67;100.00
43691;BME280;29293;52.190;21.226;2023-03-15T12:59:55;99981.65;;;6.50;100.00
43691;BME280;29293;52.190;21.226;2023-03-15T13:15:06;99990.45;;;6.15;100.00
43691;BME280;29293;52.190;21.226;2023-03-15T13:30:33;100003.26;;;6.16;100.00
43691;BME280;29293;52.190;21.226;2023-03-15T13:45:43;100015.98;;;6.13;100.00
43691;BME280;29293;52.190;21.226;2023-03-15T14:00:57;100028.85;;;6.12;100.00
43691;BME280;29293;52.190;21.226;2023-03-15T14:16:11;100045.27;;;5.83;100.00
43691;BME280;29293;52.190;21.226;2023-03-15T14:31:25;100053.89;;;6.07;100.00
43691;BME280;29293;52.190;21.226;2023-03-15T14:46:33;100058.55;;;6.25;100.00
43691;BME280;29293;52.190;21.226;2023-03-15T15:01:43;100075.09;;;5.75;100.00
43691;BME280;29293;52.190;21.226;2023-03-15T15:16:52;100083.11;;;5.15;100.00
43691;BME280;29293;52.190;21.226;2023-03-15T15:31:59;100096.14;;;4.84;100.00
43691;BME280;29293;52.190;21.226;2023-03-15T15:47:06;100115.48;;;4.81;100.00
43691;BME280;29293;52.190;21.226;2023-03-15T16:02:14;100134.89;;;4.70;100.00
43691;BME280;29293;52.190;21.226;2023-03-15T16:17:26;100156.16;;;4.56;100.00
43691;BME280;29293;52.190;21.226;2023-03-15T16:32:33;100168.54;;;4.29;100.00
43691;BME280;29293;52.190;21.226;2023-03-15T16:47:40;100184.25;;;3.94;100.00
43691;BME280;29293;52.190;21.226;2023-03-15T17:02:54;100202.58;;;3.55;100.00
43691;BME280;29293;52.190;21.226;2023-03-15T17:18:08;100227.39;;;3.10;100.00
43691;BME280;29293;52.190;21.226;2023-03-15T17:33:22;100236.24;;;2.69;100.00
43691;BME280;29293;52.190;21.226;2023-03-15T17:48:30;100246.84;;;2.23;100.00
43691;BME280;29293;52.190;21.226;2023-03-15T18:03:37;100262.55;;;1.66;100.00
43691;BME280;29293;52.190;21.226;2023-03-15T18:18:45;100273.67;;;1.08;100.00
43691;BME280;29293;52.190;21.226;2023-03-15T18:33:53;100295.06;;;0.49;100.00
43691;BME280;29293;52.190;21.226;2023-03-15T18:49:00;100310.88;;;-0.07;100.00
43691;BME280;29293;52.190;21.226;2023-03-15T19:04:07;100318.70;;;-0.52;100.00
43691;BME280;29293;52.190;21.226;2023-03-15T19:19:14;100327.42;;;-0.83;100.00
43691;BME280;29293;52.190;21.226;2023-03-15T19:34:23;100339.80;;;-1.01;100.00
43691;BME280;29293;52.190;21.226;2023-03-15T19:49:33;100351.20;;;-1.15;100.00
43691;BME280;29293;52.190;21.226;2023-03-15T20:04:41;100359.55;;;-1.36;100.00
43691;BME280;29293;52.190;21.226;2023-03-15T20:19:48;100365.21;;;-1.47;100.00
43691;BME280;29293;52.190;21.226;2023-03-15T20:34:55;100373.64;;;-1.51;100.00
43691;BME280;29293;52.190;21.226;2023-03-15T20:50:03;100388.19;;;-1.48;100.00
43691;BME280;29293;52.190;21.226;2023-03-15T21:05:11;100391.03;;;-1.59;100.00
43691;BME280;29293;52.190;21.226;2023-03-15T21:20:18;100394.75;;;-1.73;100.00
43691;BME280;29293;52.190;21.226;2023-03-15T21:35:26;100413.02;;;-1.84;100.00
43691;BME280;29293;52.190;21.226;2023-03-15T22:05:39;100432.24;;;-1.82;100.00
43691;BME280;29293;52.190;21.226;2023-03-15T22:20:47;100447.61;;;-1.75;100.00
43691;BME280;29293;52.190;21.226;2023-03-15T22:35:55;100460.30;;;-1.57;100.00
43691;BME280;29293;52.190;21.226;2023-03-15T22:51:04;100467.63;;;-1.50;100.00
43691;BME280;29293;52.190;21.226;2023-03-15T23:06:12;100481.27;;;-1.44;100.00
43691;BME280;29293;52.190;21.226;2023-03-15T23:21:19;100500.77;;;-1.40;100.00
43691;BME280;29293;52.190;21.226;2023-03-15T23:36:26;100518.77;;;-1.50;100.00
43691;BME280;29293;52.190;21.226;2023-03-15T23:51:32;100536.42;;;-1.60;100.00
